sensor_id;sensor_type;location;lat;lon;timestamp;temperature;humidity
37998;DHT22;24079;51.824;4.682;2022-12-18T04:36:21;-2.60;99.90
37998;DHT22;24079;51.824;4.682;2022-12-18T07:09:19;-3.20;99.90
37998;DHT22;24079;51.824;4.682;2022-12-18T07:11:51;-3.30;99.90
37998;DHT22;24079;51.824;4.682;2022-12-18T07:14:28;-3.30;99.90
37998;DHT22;24079;51.824;4.682;2022-12-18T07:16:56;-3.30;99.90
37998;DHT22;24079;51.824;4.682;2022-12-18T07:19:25;-3.30;99.90
37998;DHT22;24079;51.824;4.682;2022-12-18T07:21:51;-3.30;99.90
37998;DHT22;24079;51.824;4.682;2022-12-18T07:27:13;-3.30;99.90
37998;DHT22;24079;51.824;4.682;2022-12-18T07:29:39;-3.30;99.90
37998;DHT22;24079;51.824;4.682;2022-12-18T07:32:05;-3.30;99.90
37998;DHT22;24079;51.824;4.682;2022-12-18T07:37:48;-3.30;99.90
37998;DHT22;24079;51.824;4.682;2022-12-18T07:40:24;-3.30;99.90
37998;DHT22;24079;51.824;4.682;2022-12-18T07:42:50;-3.30;99.90
37998;DHT22;24079;51.824;4.682;2022-12-18T07:45:15;-3.30;99.90
37998;DHT22;24079;51.824;4.682;2022-12-18T07:47:41;-3.20;99.90
37998;DHT22;24079;51.824;4.682;2022-12-18T07:50:12;-3.30;99.90
37998;DHT22;24079;51.824;4.682;2022-12-18T07:52:59;-3.20;99.90
37998;DHT22;24079;51.824;4.682;2022-12-18T07:58:04;-3.30;99.90
37998;DHT22;24079;51.824;4.682;2022-12-18T08:00:30;-3.30;99.90
37998;DHT22;24079;51.824;4.682;2022-12-18T08:02:56;-3.30;99.90
37998;DHT22;24079;51.824;4.682;2022-12-18T08:05:23;-3.30;99.90
37998;DHT22;24079;51.824;4.682;2022-12-18T08:08:12;-3.40;99.90
37998;DHT22;24079;51.824;4.682;2022-12-18T08:13:48;-3.30;99.90
37998;DHT22;24079;51.824;4.682;2022-12-18T08:39:15;-3.00;99.90
37998;DHT22;24079;51.824;4.682;2022-12-18T08:41:43;-3.00;99.90
37998;DHT22;24079;51.824;4.682;2022-12-18T08:49:40;-3.00;99.90
37998;DHT22;24079;51.824;4.682;2022-12-18T08:52:15;-2.90;99.90
37998;DHT22;24079;51.824;4.682;2022-12-18T08:54:42;-2.80;99.90
37998;DHT22;24079;51.824;4.682;2022-12-18T08:57:08;-2.70;99.90
37998;DHT22;24079;51.824;4.682;2022-12-18T09:02:20;-2.60;99.90
37998;DHT22;24079;51.824;4.682;2022-12-18T09:04:49;-2.60;99.90
37998;DHT22;24079;51.824;4.682;2022-12-18T09:09:50;-2.50;99.90
37998;DHT22;24079;51.824;4.682;2022-12-18T09:12:16;-2.50;99.90
37998;DHT22;24079;51.824;4.682;2022-12-18T09:14:42;-2.50;99.90
37998;DHT22;24079;51.824;4.682;2022-12-18T09:17:08;-2.40;99.90
37998;DHT22;24079;51.824;4.682;2022-12-18T09:36:18;-2.10;99.90
37998;DHT22;24079;51.824;4.682;2022-12-18T09:38:45;-2.10;99.90
37998;DHT22;24079;51.824;4.682;2022-12-18T09:43:58;-2.00;99.90
37998;DHT22;24079;51.824;4.682;2022-12-18T09:46:43;-1.90;99.90
37998;DHT22;24079;51.824;4.682;2022-12-18T09:49:22;-1.90;99.90
37998;DHT22;24079;51.824;4.682;2022-12-18T09:57:25;-1.70;99.90
37998;DHT22;24079;51.824;4.682;2022-12-18T10:00:03;-1.70;99.90
37998;DHT22;24079;51.824;4.682;2022-12-18T10:02:30;-1.70;99.90
37998;DHT22;24079;51.824;4.682;2022-12-18T10:05:14;-1.70;99.90
37998;DHT22;24079;51.824;4.682;2022-12-18T10:07:50;-1.60;99.90
37998;DHT22;24079;51.824;4.682;2022-12-18T10:10:38;-1.60;99.90
37998;DHT22;24079;51.824;4.682;2022-12-18T10:13:42;-1.50;99.90
37998;DHT22;24079;51.824;4.682;2022-12-18T10:16:17;-1.50;99.90
37998;DHT22;24079;51.824;4.682;2022-12-18T10:19:14;-1.50;99.90
37998;DHT22;24079;51.824;4.682;2022-12-18T10:24:43;-1.40;99.90
37998;DHT22;24079;51.824;4.682;2022-12-18T10:27:35;-1.40;99.90
37998;DHT22;24079;51.824;4.682;2022-12-18T10:30:21;-1.40;99.90
37998;DHT22;24079;51.824;4.682;2022-12-18T10:38:19;-1.30;99.90
37998;DHT22;24079;51.824;4.682;2022-12-18T11:00:33;-1.10;99.90
37998;DHT22;24079;51.824;4.682;2022-12-18T11:21:53;-0.80;99.90
37998;DHT22;24079;51.824;4.682;2022-12-18T11:24:27;-0.80;99.90
37998;DHT22;24079;51.824;4.682;2022-12-18T11:26:55;-0.80;99.90
37998;DHT22;24079;51.824;4.682;2022-12-18T11:29:39;-0.70;99.90
37998;DHT22;24079;51.824;4.682;2022-12-18T11:34:42;-0.60;99.90
37998;DHT22;24079;51.824;4.682;2022-12-18T11:37:11;-0.60;99.90
37998;DHT22;24079;51.824;4.682;2022-12-18T11:42:36;-0.60;99.90
37998;DHT22;24079;51.824;4.682;2022-12-18T11:53:00;-0.50;99.90
37998;DHT22;24079;51.824;4.682;2022-12-18T12:01:50;-0.60;99.90
37998;DHT22;24079;51.824;4.682;2022-12-18T12:21:44;-0.40;99.90
37998;DHT22;24079;51.824;4.682;2022-12-18T12:30:18;-0.30;99.90
37998;DHT22;24079;51.824;4.682;2022-12-18T12:33:21;-0.30;99.90
37998;DHT22;24079;51.824;4.682;2022-12-18T12:38:47;-0.30;99.90
37998;DHT22;24079;51.824;4.682;2022-12-18T12:49:17;-0.30;99.90
37998;DHT22;24079;51.824;4.682;2022-12-18T12:51:47;-0.30;99.90
37998;DHT22;24079;51.824;4.682;2022-12-18T12:54:19;-0.20;99.90
37998;DHT22;24079;51.824;4.682;2022-12-18T12:57:24;-0.10;99.90
37998;DHT22;24079;51.824;4.682;2022-12-18T13:00:15;-0.10;99.90
37998;DHT22;24079;51.824;4.682;2022-12-18T13:05:50;-0.20;99.90
37998;DHT22;24079;51.824;4.682;2022-12-18T13:08:28;-0.10;99.90
37998;DHT22;24079;51.824;4.682;2022-12-18T13:11:00;-0.10;99.90
37998;DHT22;24079;51.824;4.682;2022-12-18T13:16:19;-0.10;99.90
37998;DHT22;24079;51.824;4.682;2022-12-18T13:19:01;0.00;99.90
37998;DHT22;24079;51.824;4.682;2022-12-18T13:21:33;0.00;99.90
37998;DHT22;24079;51.824;4.682;2022-12-18T13:24:27;0.00;99.90
37998;DHT22;24079;51.824;4.682;2022-12-18T13:51:33;0.10;99.90
37998;DHT22;24079;51.824;4.682;2022-12-18T13:54:45;0.10;99.90
37998;DHT22;24079;51.824;4.682;2022-12-18T14:07:12;0.10;99.90
37998;DHT22;24079;51.824;4.682;2022-12-18T14:09:43;0.10;99.90
37998;DHT22;24079;51.824;4.682;2022-12-18T14:12:22;0.10;99.90
37998;DHT22;24079;51.824;4.682;2022-12-18T14:17:42;0.10;99.90
37998;DHT22;24079;51.824;4.682;2022-12-18T14:20:14;0.10;99.90
37998;DHT22;24079;51.824;4.682;2022-12-18T14:22:44;0.10;99.90
37998;DHT22;24079;51.824;4.682;2022-12-18T14:30:58;0.20;99.90
37998;DHT22;24079;51.824;4.682;2022-12-18T14:48:56;0.30;99.90
37998;DHT22;24079;51.824;4.682;2022-12-18T14:51:33;0.30;99.90
37998;DHT22;24079;51.824;4.682;2022-12-18T14:54:05;0.20;99.90
37998;DHT22;24079;51.824;4.682;2022-12-18T14:56:46;0.30;99.90
37998;DHT22;24079;51.824;4.682;2022-12-18T14:59:20;0.30;99.90
37998;DHT22;24079;51.824;4.682;2022-12-18T15:04:37;0.30;99.90
37998;DHT22;24079;51.824;4.682;2022-12-18T15:07:22;0.40;99.90
37998;DHT22;24079;51.824;4.682;2022-12-18T15:10:15;0.40;99.90
37998;DHT22;24079;51.824;4.682;2022-12-18T15:15:45;0.40;99.90
37998;DHT22;24079;51.824;4.682;2022-12-18T15:18:16;0.40;99.90
37998;DHT22;24079;51.824;4.682;2022-12-18T15:20:45;0.40;99.90
37998;DHT22;24079;51.824;4.682;2022-12-18T15:23:25;0.50;99.90
37998;DHT22;24079;51.824;4.682;2022-12-18T15:28:33;0.50;99.90
37998;DHT22;24079;51.824;4.682;2022-12-18T15:31:06;0.50;99.90
37998;DHT22;24079;51.824;4.682;2022-12-18T15:33:36;0.50;99.90
37998;DHT22;24079;51.824;4.682;2022-12-18T15:36:04;0.60;99.90
37998;DHT22;24079;51.824;4.682;2022-12-18T15:38:31;0.60;99.90
37998;DHT22;24079;51.824;4.682;2022-12-18T15:40:57;0.60;99.90
37998;DHT22;24079;51.824;4.682;2022-12-18T15:43:26;0.70;99.90
37998;DHT22;24079;51.824;4.682;2022-12-18T15:46:09;0.70;99.90
37998;DHT22;24079;51.824;4.682;2022-12-18T15:48:46;0.70;99.90
37998;DHT22;24079;51.824;4.682;2022-12-18T15:51:31;0.90;99.90
37998;DHT22;24079;51.824;4.682;2022-12-18T15:54:00;1.20;99.90
37998;DHT22;24079;51.824;4.682;2022-12-18T15:56:26;1.30;99.90
37998;DHT22;24079;51.824;4.682;2022-12-18T15:59:18;1.30;99.90
37998;DHT22;24079;51.824;4.682;2022-12-18T16:01:46;1.20;99.90
37998;DHT22;24079;51.824;4.682;2022-12-18T16:04:14;1.30;99.90
37998;DHT22;24079;51.824;4.682;2022-12-18T16:06:40;1.30;99.90
37998;DHT22;24079;51.824;4.682;2022-12-18T16:09:11;1.50;99.90
37998;DHT22;24079;51.824;4.682;2022-12-18T16:11:37;1.60;99.90
37998;DHT22;24079;51.824;4.682;2022-12-18T16:14:28;1.50;99.90
37998;DHT22;24079;51.824;4.682;2022-12-18T16:16:59;1.60;99.90
37998;DHT22;24079;51.824;4.682;2022-12-18T16:19:25;1.50;99.90
37998;DHT22;24079;51.824;4.682;2022-12-18T16:21:52;1.50;99.90
37998;DHT22;24079;51.824;4.682;2022-12-18T16:24:22;1.50;99.90
37998;DHT22;24079;51.824;4.682;2022-12-18T16:26:51;1.70;99.90
37998;DHT22;24079;51.824;4.682;2022-12-18T16:29:18;1.60;99.90
37998;DHT22;24079;51.824;4.682;2022-12-18T16:31:44;1.50;99.90
37998;DHT22;24079;51.824;4.682;2022-12-18T16:36:49;1.40;99.90
37998;DHT22;24079;51.824;4.682;2022-12-18T16:39:16;1.40;99.90
37998;DHT22;24079;51.824;4.682;2022-12-18T16:41:42;1.40;99.90
37998;DHT22;24079;51.824;4.682;2022-12-18T16:44:08;1.40;99.90
37998;DHT22;24079;51.824;4.682;2022-12-18T16:46:33;1.40;99.90
37998;DHT22;24079;51.824;4.682;2022-12-18T16:49:00;1.40;99.90
37998;DHT22;24079;51.824;4.682;2022-12-18T16:51:27;1.30;99.90
37998;DHT22;24079;51.824;4.682;2022-12-18T16:53:56;1.30;99.90
37998;DHT22;24079;51.824;4.682;2022-12-18T16:56:23;1.40;99.90
37998;DHT22;24079;51.824;4.682;2022-12-18T16:58:54;1.30;99.90
37998;DHT22;24079;51.824;4.682;2022-12-18T17:01:21;1.20;99.90
37998;DHT22;24079;51.824;4.682;2022-12-18T17:04:00;1.20;99.90
37998;DHT22;24079;51.824;4.682;2022-12-18T17:06:28;1.20;99.90
37998;DHT22;24079;51.824;4.682;2022-12-18T17:08:58;1.20;99.90
37998;DHT22;24079;51.824;4.682;2022-12-18T17:11:26;1.20;99.90
37998;DHT22;24079;51.824;4.682;2022-12-18T17:13:53;1.10;99.90
37998;DHT22;24079;51.824;4.682;2022-12-18T17:16:23;1.20;99.90
37998;DHT22;24079;51.824;4.682;2022-12-18T17:18:49;1.10;99.90
37998;DHT22;24079;51.824;4.682;2022-12-18T17:21:16;1.10;99.90
37998;DHT22;24079;51.824;4.682;2022-12-18T17:23:43;1.10;99.90
37998;DHT22;24079;51.824;4.682;2022-12-18T17:26:09;1.10;99.90
37998;DHT22;24079;51.824;4.682;2022-12-18T17:28:37;1.10;99.90
37998;DHT22;24079;51.824;4.682;2022-12-18T17:31:14;1.10;99.90
37998;DHT22;24079;51.824;4.682;2022-12-18T17:33:47;1.10;99.90
37998;DHT22;24079;51.824;4.682;2022-12-18T17:36:13;1.10;99.90
37998;DHT22;24079;51.824;4.682;2022-12-18T17:38:43;1.10;99.90
37998;DHT22;24079;51.824;4.682;2022-12-18T17:41:14;1.20;99.90
37998;DHT22;24079;51.824;4.682;2022-12-18T17:43:40;1.10;99.90
37998;DHT22;24079;51.824;4.682;2022-12-18T17:46:12;1.20;99.90
37998;DHT22;24079;51.824;4.682;2022-12-18T17:48:38;1.20;99.90
37998;DHT22;24079;51.824;4.682;2022-12-18T17:51:05;1.20;99.90
37998;DHT22;24079;51.824;4.682;2022-12-18T17:53:32;1.20;99.90
37998;DHT22;24079;51.824;4.682;2022-12-18T17:55:58;1.20;99.90
37998;DHT22;24079;51.824;4.682;2022-12-18T17:58:30;1.20;99.90
37998;DHT22;24079;51.824;4.682;2022-12-18T18:00:56;1.20;99.90
37998;DHT22;24079;51.824;4.682;2022-12-18T18:03:22;1.20;99.90
37998;DHT22;24079;51.824;4.682;2022-12-18T18:05:48;1.20;99.90
37998;DHT22;24079;51.824;4.682;2022-12-18T18:08:13;1.20;99.90
37998;DHT22;24079;51.824;4.682;2022-12-18T18:10:39;1.20;99.90
37998;DHT22;24079;51.824;4.682;2022-12-18T18:13:18;1.20;99.90
37998;DHT22;24079;51.824;4.682;2022-12-18T18:16:05;1.30;99.90
37998;DHT22;24079;51.824;4.682;2022-12-18T18:18:31;1.30;99.90
37998;DHT22;24079;51.824;4.682;2022-12-18T18:20:57;1.30;99.90
37998;DHT22;24079;51.824;4.682;2022-12-18T18:23:22;1.30;99.90
37998;DHT22;24079;51.824;4.682;2022-12-18T18:26:04;1.30;99.90
37998;DHT22;24079;51.824;4.682;2022-12-18T18:28:31;1.30;99.90
37998;DHT22;24079;51.824;4.682;2022-12-18T18:30:57;1.30;99.90
37998;DHT22;24079;51.824;4.682;2022-12-18T18:33:23;1.30;99.90
37998;DHT22;24079;51.824;4.682;2022-12-18T18:35:51;1.30;99.90
37998;DHT22;24079;51.824;4.682;2022-12-18T18:38:17;1.30;99.90
37998;DHT22;24079;51.824;4.682;2022-12-18T18:40:43;1.30;99.90
37998;DHT22;24079;51.824;4.682;2022-12-18T18:43:08;1.30;99.90
37998;DHT22;24079;51.824;4.682;2022-12-18T18:45:56;1.30;99.90
37998;DHT22;24079;51.824;4.682;2022-12-18T18:48:34;1.30;99.90
37998;DHT22;24079;51.824;4.682;2022-12-18T18:51:30;1.30;99.90
37998;DHT22;24079;51.824;4.682;2022-12-18T18:53:56;1.30;99.90
37998;DHT22;24079;51.824;4.682;2022-12-18T18:56:23;1.30;99.90
37998;DHT22;24079;51.824;4.682;2022-12-18T18:58:49;1.30;99.90
37998;DHT22;24079;51.824;4.682;2022-12-18T19:01:17;1.30;99.90
37998;DHT22;24079;51.824;4.682;2022-12-18T19:03:44;1.40;99.90
37998;DHT22;24079;51.824;4.682;2022-12-18T19:06:22;1.40;99.90
37998;DHT22;24079;51.824;4.682;2022-12-18T19:08:49;1.30;99.90
37998;DHT22;24079;51.824;4.682;2022-12-18T19:11:19;1.30;99.90
37998;DHT22;24079;51.824;4.682;2022-12-18T19:14:09;1.30;99.90
37998;DHT22;24079;51.824;4.682;2022-12-18T19:16:35;1.40;99.90
37998;DHT22;24079;51.824;4.682;2022-12-18T19:19:04;1.40;99.90
37998;DHT22;24079;51.824;4.682;2022-12-18T19:21:33;1.40;99.90
37998;DHT22;24079;51.824;4.682;2022-12-18T19:23:59;1.40;99.90
37998;DHT22;24079;51.824;4.682;2022-12-18T19:26:25;1.30;99.90
37998;DHT22;24079;51.824;4.682;2022-12-18T19:28:52;1.40;99.90
37998;DHT22;24079;51.824;4.682;2022-12-18T19:31:21;1.40;99.90
37998;DHT22;24079;51.824;4.682;2022-12-18T19:33:47;1.40;99.90
37998;DHT22;24079;51.824;4.682;2022-12-18T19:36:25;1.40;99.90
37998;DHT22;24079;51.824;4.682;2022-12-18T19:38:53;1.50;99.90
37998;DHT22;24079;51.824;4.682;2022-12-18T19:41:20;1.50;99.90
37998;DHT22;24079;51.824;4.682;2022-12-18T19:43:46;1.50;99.90
37998;DHT22;24079;51.824;4.682;2022-12-18T19:46:14;1.50;99.90
37998;DHT22;24079;51.824;4.682;2022-12-18T19:48:43;1.50;99.90
37998;DHT22;24079;51.824;4.682;2022-12-18T19:51:29;1.50;99.90
37998;DHT22;24079;51.824;4.682;2022-12-18T19:53:56;1.50;99.90
37998;DHT22;24079;51.824;4.682;2022-12-18T19:56:23;1.50;99.90
37998;DHT22;24079;51.824;4.682;2022-12-18T19:58:53;1.50;99.90
37998;DHT22;24079;51.824;4.682;2022-12-18T20:01:23;1.50;99.90
37998;DHT22;24079;51.824;4.682;2022-12-18T20:03:49;1.50;99.90
37998;DHT22;24079;51.824;4.682;2022-12-18T20:06:20;1.50;99.90
37998;DHT22;24079;51.824;4.682;2022-12-18T20:08:49;1.50;99.90
37998;DHT22;24079;51.824;4.682;2022-12-18T20:11:15;1.50;99.90
37998;DHT22;24079;51.824;4.682;2022-12-18T20:13:40;1.50;99.90
37998;DHT22;24079;51.824;4.682;2022-12-18T20:16:06;1.50;99.90
37998;DHT22;24079;51.824;4.682;2022-12-18T20:18:32;1.50;99.90
37998;DHT22;24079;51.824;4.682;2022-12-18T20:20:58;1.50;99.90
37998;DHT22;24079;51.824;4.682;2022-12-18T20:23:23;1.60;99.90
37998;DHT22;24079;51.824;4.682;2022-12-18T20:25:51;1.50;99.90
37998;DHT22;24079;51.824;4.682;2022-12-18T20:28:18;1.50;99.90
37998;DHT22;24079;51.824;4.682;2022-12-18T20:30:44;1.60;99.90
37998;DHT22;24079;51.824;4.682;2022-12-18T20:33:09;1.50;99.90
37998;DHT22;24079;51.824;4.682;2022-12-18T20:35:35;1.60;99.90
37998;DHT22;24079;51.824;4.682;2022-12-18T20:38:01;1.60;99.90
37998;DHT22;24079;51.824;4.682;2022-12-18T20:40:27;1.60;99.90
37998;DHT22;24079;51.824;4.682;2022-12-18T20:42:52;1.60;99.90
37998;DHT22;24079;51.824;4.682;2022-12-18T20:45:18;1.60;99.90
37998;DHT22;24079;51.824;4.682;2022-12-18T20:47:44;1.70;99.90
37998;DHT22;24079;51.824;4.682;2022-12-18T20:50:10;1.70;99.90
37998;DHT22;24079;51.824;4.682;2022-12-18T20:52:35;1.70;99.90
37998;DHT22;24079;51.824;4.682;2022-12-18T20:55:01;1.70;99.90
37998;DHT22;24079;51.824;4.682;2022-12-18T20:57:29;1.70;99.90
37998;DHT22;24079;51.824;4.682;2022-12-18T20:59:55;1.70;99.90
37998;DHT22;24079;51.824;4.682;2022-12-18T21:02:21;1.80;99.90
37998;DHT22;24079;51.824;4.682;2022-12-18T21:04:46;1.70;99.90
37998;DHT22;24079;51.824;4.682;2022-12-18T21:07:12;1.70;99.90
37998;DHT22;24079;51.824;4.682;2022-12-18T21:09:37;1.70;99.90
37998;DHT22;24079;51.824;4.682;2022-12-18T21:12:03;1.70;99.90
37998;DHT22;24079;51.824;4.682;2022-12-18T21:14:48;1.80;99.90
37998;DHT22;24079;51.824;4.682;2022-12-18T21:17:14;1.70;99.90
37998;DHT22;24079;51.824;4.682;2022-12-18T21:19:40;1.80;99.90
37998;DHT22;24079;51.824;4.682;2022-12-18T21:22:05;1.80;99.90
37998;DHT22;24079;51.824;4.682;2022-12-18T21:24:31;1.80;99.90
37998;DHT22;24079;51.824;4.682;2022-12-18T21:27:00;1.80;99.90
37998;DHT22;24079;51.824;4.682;2022-12-18T21:29:26;1.80;99.90
37998;DHT22;24079;51.824;4.682;2022-12-18T21:31:52;1.80;99.90
37998;DHT22;24079;51.824;4.682;2022-12-18T21:36:45;1.90;99.90
37998;DHT22;24079;51.824;4.682;2022-12-18T21:39:11;2.00;99.90
37998;DHT22;24079;51.824;4.682;2022-12-18T21:41:37;1.90;99.90
37998;DHT22;24079;51.824;4.682;2022-12-18T21:44:24;1.90;99.90
37998;DHT22;24079;51.824;4.682;2022-12-18T21:46:50;1.90;99.90
37998;DHT22;24079;51.824;4.682;2022-12-18T21:49:17;1.90;99.90
37998;DHT22;24079;51.824;4.682;2022-12-18T21:51:50;2.00;99.90
37998;DHT22;24079;51.824;4.682;2022-12-18T21:54:17;1.90;99.90
37998;DHT22;24079;51.824;4.682;2022-12-18T21:59:12;1.90;99.90
37998;DHT22;24079;51.824;4.682;2022-12-18T22:01:39;2.00;99.90
37998;DHT22;24079;51.824;4.682;2022-12-18T22:04:07;2.00;99.90
37998;DHT22;24079;51.824;4.682;2022-12-18T22:06:36;2.00;99.90
37998;DHT22;24079;51.824;4.682;2022-12-18T22:09:03;2.10;99.90
37998;DHT22;24079;51.824;4.682;2022-12-18T22:11:28;2.00;99.90
37998;DHT22;24079;51.824;4.682;2022-12-18T22:13:54;2.10;99.90
37998;DHT22;24079;51.824;4.682;2022-12-18T22:16:20;2.10;99.90
37998;DHT22;24079;51.824;4.682;2022-12-18T22:18:46;2.10;99.90
37998;DHT22;24079;51.824;4.682;2022-12-18T22:21:32;2.10;99.90
37998;DHT22;24079;51.824;4.682;2022-12-18T22:24:00;2.10;99.90
37998;DHT22;24079;51.824;4.682;2022-12-18T22:26:28;2.10;99.90
37998;DHT22;24079;51.824;4.682;2022-12-18T22:28:54;2.10;99.90
37998;DHT22;24079;51.824;4.682;2022-12-18T22:31:39;2.10;99.90
37998;DHT22;24079;51.824;4.682;2022-12-18T22:34:05;2.10;99.90
37998;DHT22;24079;51.824;4.682;2022-12-18T22:36:39;2.10;99.90
37998;DHT22;24079;51.824;4.682;2022-12-18T22:39:10;2.20;99.90
37998;DHT22;24079;51.824;4.682;2022-12-18T22:41:36;2.20;99.90
37998;DHT22;24079;51.824;4.682;2022-12-18T22:44:02;2.20;99.90
37998;DHT22;24079;51.824;4.682;2022-12-18T22:46:31;2.30;99.90
37998;DHT22;24079;51.824;4.682;2022-12-18T22:48:57;2.30;99.90
37998;DHT22;24079;51.824;4.682;2022-12-18T22:51:23;2.30;99.90
37998;DHT22;24079;51.824;4.682;2022-12-18T22:53:49;2.20;99.90
37998;DHT22;24079;51.824;4.682;2022-12-18T22:56:15;2.20;99.90
37998;DHT22;24079;51.824;4.682;2022-12-18T22:58:41;2.20;99.90
37998;DHT22;24079;51.824;4.682;2022-12-18T23:01:17;2.30;99.90
37998;DHT22;24079;51.824;4.682;2022-12-18T23:03:43;2.30;99.90
37998;DHT22;24079;51.824;4.682;2022-12-18T23:06:09;2.30;99.90
37998;DHT22;24079;51.824;4.682;2022-12-18T23:08:35;2.30;99.90
37998;DHT22;24079;51.824;4.682;2022-12-18T23:11:01;2.40;99.90
37998;DHT22;24079;51.824;4.682;2022-12-18T23:13:27;2.40;99.90
37998;DHT22;24079;51.824;4.682;2022-12-18T23:15:54;2.40;99.90
37998;DHT22;24079;51.824;4.682;2022-12-18T23:18:20;2.40;99.90
37998;DHT22;24079;51.824;4.682;2022-12-18T23:20:46;2.40;99.90
37998;DHT22;24079;51.824;4.682;2022-12-18T23:23:12;2.40;99.90
37998;DHT22;24079;51.824;4.682;2022-12-18T23:25:38;2.40;99.90
37998;DHT22;24079;51.824;4.682;2022-12-18T23:28:03;2.50;99.90
37998;DHT22;24079;51.824;4.682;2022-12-18T23:30:30;2.50;99.90
37998;DHT22;24079;51.824;4.682;2022-12-18T23:32:56;2.50;99.90
37998;DHT22;24079;51.824;4.682;2022-12-18T23:35:22;2.50;99.90
37998;DHT22;24079;51.824;4.682;2022-12-18T23:37:48;2.50;99.90
37998;DHT22;24079;51.824;4.682;2022-12-18T23:40:13;2.50;99.90
37998;DHT22;24079;51.824;4.682;2022-12-18T23:42:39;2.50;99.90
37998;DHT22;24079;51.824;4.682;2022-12-18T23:45:05;2.50;99.90
37998;DHT22;24079;51.824;4.682;2022-12-18T23:47:31;2.60;99.90
37998;DHT22;24079;51.824;4.682;2022-12-18T23:49:57;2.60;99.90
37998;DHT22;24079;51.824;4.682;2022-12-18T23:52:22;2.60;99.90
37998;DHT22;24079;51.824;4.682;2022-12-18T23:54:48;2.60;99.90
37998;DHT22;24079;51.824;4.682;2022-12-18T23:57:14;2.60;99.90
37998;DHT22;24079;51.824;4.682;2022-12-18T23:59:39;2.70;99.90
